createdAt,value
2019-01-24T00:00:59.169Z,1.10
2019-01-24T00:03:39.800Z,1.10
2019-01-24T00:06:21.223Z,1.10
2019-01-24T00:09:03.324Z,1.10
2019-01-24T00:11:44.004Z,1.10
2019-01-24T00:14:25.402Z,1.10
2019-01-24T00:17:06.958Z,1.20
2019-01-24T00:19:48.236Z,1.10
2019-01-24T00:22:29.014Z,1.10
2019-01-24T00:25:10.601Z,1.20
2019-01-24T00:27:51.518Z,1.20
2019-01-24T00:30:32.108Z,1.20
2019-01-24T00:33:13.672Z,1.20
2019-01-24T00:35:55.179Z,1.10
2019-01-24T00:38:36.612Z,1.20
2019-01-24T00:41:17.572Z,1.10
2019-01-24T00:43:58.837Z,1.10
2019-01-24T00:46:39.924Z,1.10
2019-01-24T00:49:21.187Z,1.10
2019-01-24T00:52:02.664Z,1.10
2019-01-24T00:54:42.884Z,1.10
2019-01-24T00:57:31.441Z,1.10
2019-01-24T01:00:12.472Z,1.10
2019-01-24T01:02:53.840Z,1.20
2019-01-24T01:05:34.557Z,1.20
2019-01-24T01:08:15.211Z,1.20
2019-01-24T01:10:56.377Z,1.20
2019-01-24T01:13:37.435Z,1.20
2019-01-24T01:16:18.089Z,1.20
2019-01-24T01:18:58.844Z,1.20
2019-01-24T01:21:39.808Z,1.30
2019-01-24T01:24:21.155Z,1.30
2019-01-24T01:27:01.957Z,1.30
2019-01-24T01:29:43.448Z,1.30
2019-01-24T01:32:24.688Z,1.30
2019-01-24T01:35:05.268Z,1.30
2019-01-24T01:37:46.597Z,1.30
2019-01-24T01:40:27.251Z,1.30
2019-01-24T01:43:08.362Z,1.30
2019-01-24T01:45:48.891Z,1.30
2019-01-24T01:48:30.129Z,1.30
2019-01-24T01:51:11.417Z,1.30
2019-01-24T01:53:52.705Z,1.40
2019-01-24T01:56:33.373Z,1.40
2019-01-24T01:59:14.207Z,1.40
2019-01-24T02:01:55.699Z,1.40
2019-01-24T02:04:42.714Z,1.40
2019-01-24T02:07:19.180Z,1.40
2019-01-24T02:09:59.146Z,1.30
2019-01-24T02:15:53.606Z,1.30
2019-01-24T02:18:34.704Z,1.30
2019-01-24T02:21:16.005Z,1.30
2019-01-24T02:23:56.539Z,1.30
2019-01-24T02:26:37.878Z,1.30
2019-01-24T02:29:17.350Z,1.20
2019-01-24T02:31:56.890Z,1.20
2019-01-24T02:37:50.820Z,1.20
2019-01-24T02:40:32.327Z,1.20
2019-01-24T02:43:13.250Z,1.20
2019-01-24T02:45:54.728Z,1.20
2019-01-24T02:48:35.936Z,1.20
2019-01-24T02:51:16.562Z,1.10
2019-01-24T02:53:57.997Z,1.10
2019-01-24T02:56:39.226Z,1.10
2019-01-24T02:59:20.508Z,1.20
2019-01-24T03:02:01.150Z,1.20
2019-01-24T03:04:42.408Z,1.20
2019-01-24T03:07:23.284Z,1.20
2019-01-24T03:10:04.338Z,1.20
2019-01-24T03:12:45.810Z,1.20
2019-01-24T03:15:27.111Z,1.30
2019-01-24T03:18:07.823Z,1.20
2019-01-24T03:20:49.314Z,1.30
2019-01-24T03:23:30.706Z,1.30
2019-01-24T03:26:11.255Z,1.20
2019-01-24T03:28:51.352Z,1.20
2019-01-24T03:31:32.115Z,1.30
2019-01-24T03:34:11.566Z,1.30
2019-01-24T03:36:53.147Z,1.30
2019-01-24T03:39:32.784Z,1.30
2019-01-24T03:42:12.344Z,1.40
2019-01-24T03:48:00.701Z,1.40
2019-01-24T03:50:41.851Z,1.40
2019-01-24T03:53:23.120Z,1.40
2019-01-24T03:56:03.714Z,1.40
2019-01-24T03:58:45.052Z,1.40
2019-01-24T04:01:26.409Z,1.40
2019-01-24T04:04:07.977Z,1.40
2019-01-24T04:06:49.114Z,1.40
2019-01-24T04:09:30.736Z,1.40
2019-01-24T04:12:12.375Z,1.40
2019-01-24T04:14:53.797Z,1.40
2019-01-24T04:17:35.092Z,1.40
2019-01-24T04:20:16.482Z,1.40
2019-01-24T04:22:57.235Z,1.50
2019-01-24T04:25:38.277Z,1.40
2019-01-24T04:28:19.564Z,1.40
2019-01-24T04:31:01.054Z,1.40
2019-01-24T04:33:42.613Z,1.40
2019-01-24T04:36:23.720Z,1.40
2019-01-24T04:39:05.193Z,1.40
2019-01-24T04:41:45.912Z,1.40
2019-01-24T04:44:27.488Z,1.40
2019-01-24T04:47:08.631Z,1.40
2019-01-24T04:49:49.479Z,1.40
2019-01-24T04:52:29.498Z,1.40
2019-01-24T04:55:18.754Z,1.50
2019-01-24T04:57:59.593Z,1.40
2019-01-24T05:00:40.816Z,1.40
2019-01-24T05:03:20.374Z,1.40
2019-01-24T05:09:09.096Z,1.40
2019-01-24T05:11:50.629Z,1.40
2019-01-24T05:14:31.358Z,1.40
2019-01-24T05:17:12.242Z,1.40
2019-01-24T05:19:53.032Z,1.40
2019-01-24T05:22:34.496Z,1.40
2019-01-24T05:25:15.810Z,1.50
2019-01-24T05:27:57.302Z,1.40
2019-01-24T05:30:38.093Z,1.40
2019-01-24T05:33:19.172Z,1.40
2019-01-24T05:36:00.514Z,1.40
2019-01-24T05:38:41.643Z,1.40
2019-01-24T05:41:22.764Z,1.40
2019-01-24T05:44:04.193Z,1.40
2019-01-24T05:46:45.309Z,1.50
2019-01-24T05:49:26.242Z,1.40
2019-01-24T05:52:07.673Z,1.50
2019-01-24T05:54:48.784Z,1.50
2019-01-24T05:57:30.194Z,1.50
2019-01-24T06:00:11.095Z,1.50
2019-01-24T06:02:52.015Z,1.50
2019-01-24T06:05:33.259Z,1.50
2019-01-24T06:08:14.056Z,1.40
2019-01-24T06:10:55.437Z,1.40
2019-01-24T06:13:36.682Z,1.40
2019-01-24T06:16:17.415Z,1.40
2019-01-24T06:18:58.637Z,1.40
2019-01-24T06:21:40.238Z,1.40
2019-01-24T06:24:21.303Z,1.30
2019-01-24T06:27:02.144Z,1.30
2019-01-24T06:29:43.547Z,1.30
2019-01-24T06:32:23.822Z,1.20
2019-01-24T06:35:04.611Z,1.20
2019-01-24T06:37:46.176Z,1.20
2019-01-24T06:40:27.548Z,1.20
2019-01-24T06:43:09.079Z,1.10
2019-01-24T06:45:50.239Z,1.20
2019-01-24T06:48:31.486Z,1.10
2019-01-24T06:51:12.683Z,1.10
2019-01-24T06:53:53.935Z,1.10
2019-01-24T06:56:35.176Z,1.10
2019-01-24T06:59:15.908Z,1.20
2019-01-24T07:01:57.252Z,1.10
2019-01-24T07:04:38.769Z,1.10
2019-01-24T07:07:19.362Z,1.10
2019-01-24T07:10:00.035Z,1.20
2019-01-24T07:12:41.143Z,1.20
2019-01-24T07:15:22.324Z,1.20
2019-01-24T07:18:01.822Z,1.20
2019-01-24T07:20:50.241Z,1.20
2019-01-24T07:23:30.958Z,1.20
2019-01-24T07:26:12.406Z,1.30
2019-01-24T07:28:53.883Z,1.30
2019-01-24T07:31:35.127Z,1.40
2019-01-24T07:34:15.087Z,1.40
2019-01-24T07:37:03.591Z,1.50
2019-01-24T07:39:43.129Z,1.50
2019-01-24T07:42:31.514Z,1.60
2019-01-24T07:45:12.605Z,1.60
2019-01-24T07:47:54.275Z,1.70
2019-01-24T07:50:35.907Z,1.70
2019-01-24T07:53:16.570Z,1.80
2019-01-24T07:55:57.883Z,1.80
2019-01-24T07:58:39.134Z,1.90
2019-01-24T08:01:20.655Z,2.00
2019-01-24T08:04:02.063Z,2.00
2019-01-24T08:06:42.770Z,2.10
2019-01-24T08:09:24.013Z,2.10
2019-01-24T08:12:05.452Z,2.20
2019-01-24T08:14:46.081Z,2.20
2019-01-24T08:17:27.589Z,2.30
2019-01-24T08:20:08.609Z,2.30
2019-01-24T08:22:49.685Z,2.30
2019-01-24T08:25:29.239Z,2.40
2019-01-24T08:28:10.018Z,2.40
2019-01-24T08:30:51.361Z,2.50
2019-01-24T08:33:32.341Z,2.50
2019-01-24T08:56:43.806Z,2.60
2019-01-24T08:59:29.448Z,3.30
2019-01-24T09:02:08.261Z,3.40
2019-01-24T09:04:49.663Z,3.40
2019-01-24T09:07:29.522Z,3.50
2019-01-24T09:13:26.615Z,3.60
2019-01-24T09:16:07.391Z,3.70
2019-01-24T09:18:48.764Z,3.80
2019-01-24T09:21:29.449Z,3.80
2019-01-24T09:24:10.611Z,3.90
2019-01-24T09:26:52.094Z,3.90
2019-01-24T09:29:32.960Z,3.90
2019-01-24T10:09:26.808Z,3.90
2019-01-24T10:12:06.350Z,4.90
2019-01-24T10:14:54.818Z,4.90
2019-01-24T10:17:36.170Z,5.00
2019-01-24T10:20:17.115Z,5.10
2019-01-24T11:01:40.301Z,5.10
2019-01-24T12:24:43.094Z,6.00
2019-01-24T12:27:24.380Z,7.40
2019-01-24T12:30:05.880Z,7.40
2019-01-24T12:32:46.617Z,7.50
2019-01-24T12:35:27.698Z,7.50
2019-01-24T12:38:08.656Z,7.60
2019-01-24T12:40:49.892Z,7.60
2019-01-24T12:43:31.209Z,7.60
2019-01-24T12:46:12.187Z,7.60
2019-01-24T12:48:53.216Z,7.70
2019-01-24T12:51:34.713Z,7.80
2019-01-24T12:54:16.359Z,7.80
2019-01-24T12:56:57.749Z,7.80
2019-01-24T12:59:38.679Z,7.70
2019-01-24T13:02:19.317Z,7.70
2019-01-24T13:05:00.199Z,7.70
2019-01-24T13:07:40.443Z,7.70
2019-01-24T13:10:28.931Z,7.70
2019-01-24T13:13:09.743Z,7.60
2019-01-24T13:15:50.485Z,7.60
2019-01-24T13:18:31.526Z,7.60
2019-01-24T13:21:12.645Z,7.60
2019-01-24T13:23:53.976Z,7.60
2019-01-24T13:26:35.492Z,7.60
2019-01-24T13:29:16.596Z,7.70
2019-01-24T13:31:57.937Z,7.60
2019-01-24T13:34:39.150Z,7.70
2019-01-24T13:37:25.690Z,7.60
2019-01-24T13:40:03.270Z,7.60
2019-01-24T13:42:43.930Z,7.70
2019-01-24T13:45:25.061Z,7.70
2019-01-24T13:48:06.534Z,7.70
2019-01-24T13:50:48.150Z,7.70
2019-01-24T13:53:29.515Z,7.70
2019-01-24T13:56:10.538Z,7.70
2019-01-24T13:58:51.882Z,7.70
2019-01-24T14:01:33.163Z,7.70
2019-01-24T14:04:13.807Z,7.60
2019-01-24T14:06:53.340Z,7.60
2019-01-24T14:09:34.484Z,7.70
2019-01-24T14:12:15.681Z,7.60
2019-01-24T14:14:56.392Z,7.60
2019-01-24T14:17:37.539Z,7.60
2019-01-24T14:20:18.407Z,7.60
2019-01-24T14:22:59.265Z,7.60
2019-01-24T14:25:40.090Z,7.60
2019-01-24T14:28:21.010Z,7.50
2019-01-24T14:31:01.797Z,7.50
2019-01-24T14:33:42.958Z,7.50
2019-01-24T14:36:25.374Z,7.50
2019-01-24T14:39:06.708Z,7.50
2019-01-24T14:41:47.277Z,7.50
2019-01-24T14:44:27.887Z,7.50
2019-01-24T14:47:08.903Z,7.50
2019-01-24T14:49:50.016Z,7.40
2019-01-24T14:52:31.319Z,7.40
2019-01-24T14:55:11.990Z,7.40
2019-01-24T14:57:52.691Z,7.50
2019-01-24T15:00:33.300Z,7.40
2019-01-24T15:03:14.802Z,7.40
2019-01-24T15:05:56.191Z,7.40
2019-01-24T15:08:36.853Z,7.40
2019-01-24T15:11:18.447Z,7.40
2019-01-24T15:13:59.744Z,7.50
2019-01-24T15:16:41.149Z,7.40
2019-01-24T15:19:21.795Z,7.40
2019-01-24T15:22:02.531Z,7.30
2019-01-24T15:24:43.773Z,7.40
2019-01-24T15:27:25.242Z,7.30
2019-01-24T16:53:04.299Z,7.30
2019-01-24T16:55:45.066Z,6.60
2019-01-24T16:58:25.709Z,6.60
2019-01-24T17:01:06.304Z,6.60
2019-01-24T18:59:46.690Z,6.60
2019-01-24T19:02:27.675Z,5.80
2019-01-24T19:05:08.311Z,5.80
2019-01-24T19:07:49.486Z,5.80
2019-01-24T19:10:30.585Z,5.80
2019-01-24T19:13:11.607Z,5.80
2019-01-24T19:15:52.808Z,5.90
2019-01-24T19:18:34.184Z,5.90
2019-01-24T19:21:14.936Z,5.80
2019-01-24T19:23:56.061Z,5.90
2019-01-24T19:26:37.433Z,5.90
2019-01-24T19:29:18.331Z,5.90
2019-01-24T19:31:58.128Z,5.90
2019-01-24T19:34:46.644Z,5.90
2019-01-24T19:37:27.321Z,5.90
2019-01-24T19:40:08.667Z,5.80
2019-01-24T19:42:50.108Z,5.90
2019-01-24T19:45:31.351Z,5.80
2019-01-24T19:48:12.613Z,5.80
2019-01-24T19:50:53.959Z,5.80
2019-01-24T19:53:35.250Z,5.80
2019-01-24T19:56:16.074Z,5.80
2019-01-24T19:58:57.157Z,5.80
2019-01-24T20:01:37.800Z,5.70
2019-01-24T20:04:18.551Z,5.70
2019-01-24T20:06:59.978Z,5.70
2019-01-24T20:09:41.461Z,5.70
2019-01-24T20:12:22.154Z,5.70
2019-01-24T20:15:03.596Z,5.70
2019-01-24T20:17:43.190Z,5.70
2019-01-24T20:20:23.978Z,5.70
2019-01-24T20:23:05.288Z,5.70
2019-01-24T20:25:46.835Z,5.70
2019-01-24T20:28:27.810Z,5.70
2019-01-24T20:31:09.419Z,5.60
2019-01-24T20:33:50.765Z,5.70
2019-01-24T20:36:31.835Z,5.70
2019-01-24T20:39:12.574Z,5.60
2019-01-24T20:41:53.204Z,5.60
2019-01-24T20:44:34.329Z,5.60
2019-01-24T20:47:15.381Z,5.60
2019-01-24T20:49:56.494Z,5.60
2019-01-24T20:52:37.974Z,5.60
2019-01-24T20:55:18.532Z,5.50
2019-01-24T20:57:59.792Z,5.60
2019-01-24T21:00:41.114Z,5.60
2019-01-24T21:03:21.182Z,5.50
2019-01-24T21:09:14.688Z,5.50
2019-01-24T21:11:52.661Z,5.50
2019-01-24T21:14:33.327Z,5.50
2019-01-24T21:17:14.500Z,5.50
2019-01-24T21:19:55.218Z,5.40
2019-01-24T21:22:36.197Z,5.40
2019-01-24T21:25:17.638Z,5.40
2019-01-24T21:27:58.637Z,5.40
2019-01-24T21:30:38.330Z,5.40
2019-01-24T21:36:27.365Z,5.30
